createdAt,value
2019-03-24T00:00:01.685Z,53.72
2019-03-24T00:01:01.585Z,52.76
2019-03-24T00:02:01.478Z,53.03
2019-03-24T00:03:01.373Z,52.67
2019-03-24T00:04:01.269Z,52.67
2019-03-24T00:05:01.167Z,52.96
2019-03-24T00:06:01.080Z,53.24
2019-03-24T00:07:00.959Z,53.12
2019-03-24T00:08:00.855Z,53.69
2019-03-24T00:09:00.767Z,52.93
2019-03-24T00:10:00.693Z,52.64
2019-03-24T00:11:00.544Z,53.03
2019-03-24T00:12:00.438Z,52.64
2019-03-24T00:13:00.339Z,52.84
2019-03-24T00:14:00.233Z,52.93
2019-03-24T00:15:00.334Z,53.97
2019-03-24T00:16:00.026Z,54.17
2019-03-24T00:16:59.926Z,54.17
2019-03-24T00:17:59.821Z,55.40
2019-03-24T00:19:00.015Z,56.07
2019-03-24T00:19:59.612Z,56.54
2019-03-24T00:20:59.509Z,57.40
2019-03-24T00:21:59.404Z,57.87
2019-03-24T00:22:59.300Z,58.54
2019-03-24T00:23:59.197Z,59.68
2019-03-24T00:24:59.098Z,60.35
2019-03-24T00:25:58.988Z,61.39
2019-03-24T00:26:58.886Z,60.82
2019-03-24T00:27:58.781Z,61.48
2019-03-24T00:28:58.735Z,62.34
2019-03-24T00:29:58.619Z,63.29
2019-03-24T00:30:58.469Z,63.10
2019-03-24T00:31:58.364Z,63.48
2019-03-24T00:32:58.262Z,62.72
2019-03-24T00:33:58.157Z,64.05
2019-03-24T00:34:58.055Z,63.39
2019-03-24T00:35:57.949Z,64.62
2019-03-24T00:36:57.846Z,64.53
2019-03-24T00:37:57.743Z,66.24
2019-03-24T00:38:57.639Z,65.86
2019-03-24T00:39:57.534Z,67.09
2019-03-24T00:40:57.429Z,68.52
2019-03-24T00:41:57.328Z,67.76
2019-03-24T00:42:57.223Z,68.61
2019-03-24T00:43:57.120Z,70.13
2019-03-24T00:44:57.018Z,69.85
2019-03-24T00:45:56.914Z,69.46
2019-03-24T00:46:56.807Z,70.13
2019-03-24T00:47:56.719Z,70.17
2019-03-24T00:48:56.651Z,70.23
2019-03-24T00:49:56.497Z,70.04
2019-03-24T00:50:56.409Z,70.04
2019-03-24T00:51:56.287Z,71.27
2019-03-24T00:52:56.184Z,70.99
2019-03-24T00:53:56.080Z,72.13
2019-03-24T00:54:55.977Z,71.94
2019-03-24T00:55:55.873Z,71.27
2019-03-24T00:56:55.771Z,72.03
2019-03-24T00:57:55.674Z,71.94
2019-03-24T00:58:55.862Z,72.89
2019-03-24T00:59:55.457Z,72.13
2019-03-24T01:00:55.355Z,72.89
2019-03-24T01:01:55.250Z,72.99
2019-03-24T01:02:55.149Z,72.22
2019-03-24T01:03:55.045Z,73.46
2019-03-24T01:04:54.939Z,73.74
2019-03-24T01:05:54.835Z,73.46
2019-03-24T01:06:54.732Z,72.89
2019-03-24T01:07:54.678Z,72.79
2019-03-24T01:08:54.527Z,73.74
2019-03-24T01:09:54.421Z,74.41
2019-03-24T01:10:54.318Z,73.84
2019-03-24T01:11:54.214Z,73.36
2019-03-24T01:12:54.109Z,73.93
2019-03-24T01:13:54.005Z,72.99
2019-03-24T01:14:53.901Z,72.99
2019-03-24T01:15:53.798Z,71.37
2019-03-24T01:16:53.693Z,71.27
2019-03-24T01:17:53.590Z,71.08
2019-03-24T01:18:53.487Z,70.61
2019-03-24T01:19:53.387Z,70.23
2019-03-24T01:20:53.280Z,69.46
2019-03-24T01:21:53.176Z,69.66
2019-03-24T01:22:53.072Z,69.18
2019-03-24T01:23:52.968Z,69.18
2019-03-24T01:24:52.863Z,68.90
2019-03-24T01:25:52.758Z,68.71
2019-03-24T01:26:52.660Z,68.04
2019-03-24T01:27:52.597Z,67.09
2019-03-24T01:28:52.449Z,67.00
2019-03-24T01:29:52.343Z,66.14
2019-03-24T01:30:52.240Z,65.16
2019-03-24T01:31:52.143Z,65.06
2019-03-24T01:32:52.032Z,65.06
2019-03-24T01:33:51.934Z,65.35
2019-03-24T01:34:51.820Z,65.35
2019-03-24T01:35:51.719Z,66.11
2019-03-24T01:36:51.620Z,66.30
2019-03-24T01:37:51.515Z,67.06
2019-03-24T01:38:51.409Z,67.15
2019-03-24T01:39:51.303Z,67.53
2019-03-24T01:40:51.198Z,67.53
2019-03-24T01:41:51.093Z,68.10
2019-03-24T01:42:50.990Z,67.63
2019-03-24T01:43:50.889Z,66.87
2019-03-24T01:44:50.782Z,66.77
2019-03-24T01:45:58.226Z,66.30
2019-03-24T01:46:50.646Z,65.82
2019-03-24T01:47:50.468Z,65.73
2019-03-24T01:48:50.365Z,65.92
2019-03-24T01:49:50.258Z,65.16
2019-03-24T01:50:50.155Z,64.11
2019-03-24T01:51:50.051Z,64.59
2019-03-24T01:52:49.949Z,64.40
2019-03-24T01:53:49.843Z,64.40
2019-03-24T01:54:49.737Z,64.59
2019-03-24T01:55:49.635Z,63.92
2019-03-24T01:56:49.556Z,63.73
2019-03-24T01:57:49.425Z,63.83
2019-03-24T01:58:49.319Z,62.97
2019-03-24T01:59:49.218Z,63.23
2019-03-24T02:00:49.112Z,63.04
2019-03-24T02:01:49.007Z,63.32
2019-03-24T02:02:48.903Z,63.32
2019-03-24T02:03:48.852Z,63.23
2019-03-24T02:04:48.694Z,64.08
2019-03-24T02:05:48.609Z,64.75
2019-03-24T02:06:48.556Z,65.98
2019-03-24T02:07:48.379Z,66.55
2019-03-24T02:08:48.273Z,68.73
2019-03-24T02:09:48.170Z,67.31
2019-03-24T02:10:48.067Z,66.93
2019-03-24T02:11:47.965Z,65.79
2019-03-24T02:12:47.859Z,65.22
2019-03-24T02:13:47.755Z,65.22
2019-03-24T02:14:47.649Z,66.08
2019-03-24T02:15:47.546Z,67.50
2019-03-24T02:16:47.439Z,67.02
2019-03-24T02:17:47.336Z,66.64
2019-03-24T02:18:47.230Z,66.64
2019-03-24T02:19:47.126Z,66.36
2019-03-24T02:20:47.025Z,66.36
2019-03-24T02:21:46.915Z,66.27
2019-03-24T02:22:46.811Z,66.17
2019-03-24T02:23:46.721Z,65.69
2019-03-24T02:24:46.601Z,65.60
2019-03-24T02:25:46.524Z,66.17
2019-03-24T02:26:46.390Z,65.88
2019-03-24T02:27:46.288Z,67.21
2019-03-24T02:28:46.181Z,67.31
2019-03-24T02:29:46.077Z,67.50
2019-03-24T02:30:45.972Z,67.21
2019-03-24T02:31:45.866Z,68.16
2019-03-24T02:32:45.767Z,68.26
2019-03-24T02:33:45.655Z,68.44
2019-03-24T02:34:45.556Z,68.44
2019-03-24T02:35:45.454Z,70.06
2019-03-24T02:36:45.347Z,69.21
2019-03-24T02:37:45.239Z,69.27
2019-03-24T02:38:45.135Z,69.21
2019-03-24T02:39:45.029Z,68.73
2019-03-24T02:40:44.926Z,68.60
2019-03-24T02:41:44.821Z,68.41
2019-03-24T02:42:44.719Z,67.94
2019-03-24T02:43:44.607Z,67.65
2019-03-24T02:44:44.561Z,67.18
2019-03-24T02:45:44.399Z,67.94
2019-03-24T02:46:44.303Z,67.75
2019-03-24T02:47:44.208Z,70.03
2019-03-24T02:48:44.098Z,70.21
2019-03-24T02:49:43.977Z,69.65
2019-03-24T02:50:43.871Z,69.74
2019-03-24T02:51:43.768Z,70.12
2019-03-24T02:52:43.662Z,70.03
2019-03-24T02:53:43.566Z,70.03
2019-03-24T02:54:43.453Z,70.59
2019-03-24T02:55:43.345Z,70.59
2019-03-24T02:56:43.241Z,71.26
2019-03-24T02:57:43.138Z,72.68
2019-03-24T02:58:43.042Z,72.30
2019-03-24T02:59:42.937Z,72.21
2019-03-24T03:00:42.822Z,73.44
2019-03-24T03:01:42.719Z,73.44
2019-03-24T03:02:42.630Z,73.54
2019-03-24T03:03:42.543Z,73.35
2019-03-24T03:04:42.432Z,72.78
2019-03-24T03:05:42.298Z,73.72
2019-03-24T03:06:42.191Z,73.25
2019-03-24T03:07:42.084Z,72.30
2019-03-24T03:08:41.979Z,73.16
2019-03-24T03:09:41.873Z,74.20
2019-03-24T03:10:41.766Z,73.63
2019-03-24T03:11:41.664Z,73.92
2019-03-24T03:12:41.558Z,72.78
2019-03-24T03:13:41.456Z,73.07
2019-03-24T03:14:41.346Z,72.97
2019-03-24T03:15:41.242Z,73.16
2019-03-24T03:16:41.136Z,71.92
2019-03-24T03:17:41.126Z,72.30
2019-03-24T03:18:40.925Z,72.21
2019-03-24T03:19:40.821Z,71.26
2019-03-24T03:20:40.715Z,72.40
2019-03-24T03:21:40.608Z,71.26
2019-03-24T03:22:40.574Z,71.73
2019-03-24T03:23:40.447Z,70.98
2019-03-24T03:24:40.291Z,70.50
2019-03-24T03:25:40.188Z,70.09
2019-03-24T03:26:40.083Z,69.84
2019-03-24T03:27:39.980Z,69.90
2019-03-24T03:28:39.870Z,69.99
2019-03-24T03:29:39.767Z,69.99
2019-03-24T03:30:39.664Z,71.07
2019-03-24T03:31:39.566Z,71.07
2019-03-24T03:32:39.450Z,71.45
2019-03-24T03:33:39.355Z,71.45
2019-03-24T03:34:39.243Z,71.55
2019-03-24T03:35:39.214Z,70.40
2019-03-24T03:36:39.030Z,70.59
2019-03-24T03:37:38.925Z,71.45
2019-03-24T03:38:38.815Z,71.45
2019-03-24T03:39:38.710Z,71.55
2019-03-24T03:40:38.605Z,71.45
2019-03-24T03:41:38.499Z,71.92
2019-03-24T03:42:38.530Z,72.21
2019-03-24T03:43:38.289Z,72.97
2019-03-24T03:44:38.185Z,73.72
2019-03-24T03:45:39.233Z,73.63
2019-03-24T03:46:51.515Z,73.54
2019-03-24T03:47:37.865Z,73.54
2019-03-24T03:48:37.761Z,73.63
2019-03-24T03:49:37.653Z,72.88
2019-03-24T03:50:37.548Z,72.97
2019-03-24T03:51:37.441Z,72.59
2019-03-24T03:52:37.341Z,73.25
2019-03-24T03:53:37.229Z,73.25
2019-03-24T03:54:37.124Z,72.49
2019-03-24T03:55:37.021Z,72.30
2019-03-24T03:56:36.916Z,72.59
2019-03-24T03:57:36.808Z,72.97
2019-03-24T03:58:37.001Z,72.68
2019-03-24T03:59:36.595Z,72.74
2019-03-24T04:00:36.497Z,71.51
2019-03-24T04:01:36.405Z,72.17
2019-03-24T04:02:36.280Z,71.32
2019-03-24T04:03:36.175Z,70.84
2019-03-24T04:04:36.069Z,70.47
2019-03-24T04:05:35.962Z,69.71
2019-03-24T04:06:35.854Z,70.75
2019-03-24T04:07:35.751Z,69.71
2019-03-24T04:08:35.646Z,68.85
2019-03-24T04:09:35.538Z,67.90
2019-03-24T04:10:35.436Z,68.85
2019-03-24T04:11:35.330Z,68.66
2019-03-24T04:12:35.223Z,66.67
2019-03-24T04:13:35.119Z,66.58
2019-03-24T04:14:35.011Z,66.48
2019-03-24T04:15:34.903Z,65.06
2019-03-24T04:16:34.800Z,65.53
2019-03-24T04:17:34.694Z,66.01
2019-03-24T04:18:34.889Z,63.73
2019-03-24T04:19:34.493Z,63.45
2019-03-24T04:20:34.430Z,64.11
2019-03-24T04:21:34.270Z,61.43
2019-03-24T04:22:34.164Z,60.00
2019-03-24T04:23:34.061Z,58.89
2019-03-24T04:24:33.952Z,57.54
2019-03-24T04:25:33.847Z,55.26
2019-03-24T04:26:33.741Z,54.50
2019-03-24T04:27:33.636Z,53.75
2019-03-24T04:28:33.530Z,52.98
2019-03-24T04:29:33.461Z,52.51
2019-03-24T04:30:33.319Z,52.51
2019-03-24T04:31:33.213Z,52.23
2019-03-24T04:32:33.106Z,52.45
2019-03-24T04:33:33.004Z,52.42
2019-03-24T04:34:32.893Z,52.80
2019-03-24T04:35:32.791Z,52.26
2019-03-24T04:36:32.691Z,52.70
2019-03-24T04:37:33.175Z,52.83
2019-03-24T04:38:32.472Z,52.26
2019-03-24T04:39:32.429Z,52.14
2019-03-24T04:40:32.260Z,52.64
2019-03-24T04:41:32.157Z,53.27
2019-03-24T04:42:32.046Z,53.58
2019-03-24T04:43:31.941Z,53.39
2019-03-24T04:44:31.833Z,53.68
2019-03-24T04:45:31.729Z,54.72
2019-03-24T04:46:31.622Z,54.63
2019-03-24T04:47:31.515Z,54.82
2019-03-24T04:48:31.408Z,55.17
2019-03-24T04:49:31.304Z,54.06
2019-03-24T04:50:31.200Z,53.75
2019-03-24T04:51:31.093Z,53.30
2019-03-24T04:52:30.987Z,53.37
2019-03-24T04:53:30.885Z,52.61
2019-03-24T04:54:30.774Z,53.37
2019-03-24T04:55:30.670Z,52.23
2019-03-24T04:56:30.563Z,51.95
2019-03-24T04:57:30.456Z,51.57
2019-03-24T04:58:30.412Z,51.76
2019-03-24T04:59:30.258Z,51.18
2019-03-24T05:00:30.140Z,50.81
2019-03-24T05:01:30.033Z,51.47
2019-03-24T05:02:29.930Z,52.42
2019-03-24T05:03:29.819Z,52.54
2019-03-24T05:04:29.714Z,52.33
2019-03-24T05:05:29.610Z,52.61
2019-03-24T05:06:29.517Z,52.23
2019-03-24T05:07:29.395Z,52.26
2019-03-24T05:08:29.289Z,52.04
2019-03-24T05:09:29.182Z,52.61
2019-03-24T05:10:29.075Z,51.57
2019-03-24T05:11:28.971Z,52.42
2019-03-24T05:12:28.867Z,53.37
2019-03-24T05:13:28.761Z,53.37
2019-03-24T05:14:28.652Z,53.65
2019-03-24T05:15:28.546Z,53.96
2019-03-24T05:16:28.440Z,53.96
2019-03-24T05:17:28.385Z,54.91
2019-03-24T05:18:28.245Z,56.15
2019-03-24T05:19:28.121Z,56.43
2019-03-24T05:20:28.016Z,56.99
2019-03-24T05:21:27.911Z,57.28
2019-03-24T05:22:27.803Z,57.95
2019-03-24T05:23:27.703Z,58.14
2019-03-24T05:24:27.594Z,58.70
2019-03-24T05:25:27.486Z,59.27
2019-03-24T05:26:27.380Z,59.94
2019-03-24T05:27:27.272Z,61.93
2019-03-24T05:28:27.169Z,62.31
2019-03-24T05:29:27.062Z,63.92
2019-03-24T05:30:26.960Z,64.87
2019-03-24T05:31:26.861Z,67.08
2019-03-24T05:32:26.745Z,69.65
2019-03-24T05:33:26.640Z,71.73
2019-03-24T05:34:26.534Z,73.76
2019-03-24T05:35:26.429Z,74.62
2019-03-24T05:36:26.372Z,77.47
2019-03-24T05:37:26.266Z,77.28
2019-03-24T05:38:26.114Z,79.31
2019-03-24T05:39:26.008Z,80.35
2019-03-24T05:40:25.902Z,81.68
2019-03-24T05:41:25.795Z,82.73
2019-03-24T05:42:25.691Z,83.78
2019-03-24T05:43:25.584Z,82.26
2019-03-24T05:44:25.482Z,80.13
2019-03-24T05:45:25.374Z,77.94
2019-03-24T05:46:25.272Z,77.18
2019-03-24T05:47:25.165Z,75.85
2019-03-24T05:48:25.061Z,74.87
2019-03-24T05:49:24.958Z,74.20
2019-03-24T05:50:24.852Z,73.72
2019-03-24T05:51:24.749Z,73.25
2019-03-24T05:52:24.643Z,72.40
2019-03-24T05:53:24.538Z,72.11
2019-03-24T05:54:24.434Z,71.83
2019-03-24T05:55:24.339Z,72.11
2019-03-24T05:56:24.271Z,71.17
2019-03-24T05:57:24.120Z,70.78
2019-03-24T05:58:24.014Z,70.69
2019-03-24T05:59:23.917Z,71.07
2019-03-24T06:00:23.809Z,70.88
2019-03-24T06:01:23.700Z,71.45
2019-03-24T06:02:23.596Z,71.73
2019-03-24T06:03:23.789Z,73.16
2019-03-24T06:04:23.389Z,74.39
2019-03-24T06:05:23.279Z,74.58
2019-03-24T06:06:23.174Z,75.81
2019-03-24T06:07:23.071Z,78.42
2019-03-24T06:08:22.966Z,79.84
2019-03-24T06:09:22.859Z,80.22
2019-03-24T06:10:22.755Z,84.16
2019-03-24T06:11:22.653Z,85.77
2019-03-24T06:12:22.549Z,86.10
2019-03-24T06:13:22.449Z,86.43
2019-03-24T06:14:22.338Z,84.72
2019-03-24T06:15:22.311Z,83.97
2019-03-24T06:16:22.129Z,85.01
2019-03-24T06:17:22.023Z,84.72
2019-03-24T06:18:21.920Z,85.77
2019-03-24T06:19:21.816Z,87.05
2019-03-24T06:20:21.710Z,88.28
2019-03-24T06:21:21.603Z,87.52
2019-03-24T06:22:21.501Z,87.34
2019-03-24T06:23:21.396Z,88.28
2019-03-24T06:24:21.297Z,89.23
2019-03-24T06:25:21.190Z,90.89
2019-03-24T06:26:21.084Z,93.79
2019-03-24T06:27:20.987Z,94.46
2019-03-24T06:28:20.877Z,94.79
2019-03-24T06:29:20.773Z,95.65
2019-03-24T06:30:20.671Z,95.94
2019-03-24T06:31:20.566Z,95.41
2019-03-24T06:32:20.464Z,96.65
2019-03-24T06:33:20.359Z,96.51
2019-03-24T06:34:20.288Z,97.80
2019-03-24T06:35:20.227Z,96.56
2019-03-24T06:36:20.050Z,96.27
2019-03-24T06:37:19.949Z,96.80
2019-03-24T06:38:20.226Z,95.89
2019-03-24T06:39:19.746Z,95.98
2019-03-24T06:40:19.881Z,96.94
2019-03-24T06:41:19.539Z,95.51
2019-03-24T06:42:19.437Z,95.41
2019-03-24T06:43:19.334Z,95.12
2019-03-24T06:44:19.233Z,96.27
2019-03-24T06:45:28.039Z,96.84
2019-03-24T06:46:19.028Z,96.17
2019-03-24T06:47:18.926Z,95.03
2019-03-24T06:48:18.831Z,93.13
2019-03-24T06:49:18.729Z,95.08
2019-03-24T06:50:18.625Z,96.12
2019-03-24T06:51:18.521Z,96.08
2019-03-24T06:52:18.420Z,96.94
2019-03-24T06:53:18.317Z,96.51
2019-03-24T06:54:18.263Z,96.08
2019-03-24T06:55:18.183Z,94.84
2019-03-24T06:56:18.017Z,93.36
2019-03-24T06:57:17.915Z,91.74
2019-03-24T06:58:17.812Z,91.40
2019-03-24T06:59:17.713Z,88.92
2019-03-24T07:00:17.613Z,88.68
2019-03-24T07:01:17.514Z,88.97
2019-03-24T07:02:17.410Z,90.69
2019-03-24T07:03:17.314Z,91.69
2019-03-24T07:04:17.212Z,93.88
2019-03-24T07:05:17.112Z,94.79
2019-03-24T07:06:17.012Z,96.12
2019-03-24T07:07:16.915Z,96.65
2019-03-24T07:08:16.813Z,97.51
2019-03-24T07:09:16.713Z,98.46
2019-03-24T07:10:16.614Z,99.03
2019-03-24T07:11:16.517Z,99.03
2019-03-24T07:12:16.415Z,98.79
2019-03-24T07:13:16.316Z,99.17
2019-03-24T07:14:16.237Z,98.98
2019-03-24T07:15:16.186Z,98.98
2019-03-24T07:16:16.016Z,98.08
2019-03-24T07:17:15.914Z,98.27
2019-03-24T07:18:15.816Z,98.46
2019-03-24T07:19:15.715Z,97.45
2019-03-24T07:20:15.615Z,97.83
2019-03-24T07:21:15.518Z,96.98
2019-03-24T07:22:15.414Z,96.79
2019-03-24T07:23:15.311Z,97.36
2019-03-24T07:24:15.215Z,97.55
2019-03-24T07:25:15.112Z,96.31
2019-03-24T07:26:15.009Z,95.94
2019-03-24T07:27:14.911Z,96.79
2019-03-24T07:28:14.810Z,97.45
2019-03-24T07:29:14.707Z,97.93
2019-03-24T07:30:14.608Z,98.22
2019-03-24T07:31:14.506Z,98.55
2019-03-24T07:32:14.406Z,98.55
2019-03-24T07:33:14.311Z,98.17
2019-03-24T07:34:14.218Z,98.36
2019-03-24T07:35:14.153Z,98.93
2019-03-24T07:36:13.999Z,98.55
2019-03-24T07:37:13.899Z,98.17
2019-03-24T07:38:13.798Z,98.55
2019-03-24T07:39:13.698Z,98.17
2019-03-24T07:40:13.594Z,98.46
2019-03-24T07:41:13.493Z,98.17
2019-03-24T07:42:13.393Z,98.27
2019-03-24T07:43:13.291Z,99.88
2019-03-24T07:44:13.191Z,98.36
2019-03-24T07:45:13.088Z,98.83
2019-03-24T07:46:12.986Z,98.74
2019-03-24T07:47:12.885Z,98.83
2019-03-24T07:48:18.989Z,98.83
2019-03-24T07:49:12.679Z,98.74
2019-03-24T07:50:12.581Z,99.99
2019-03-24T07:51:12.479Z,99.60
2019-03-24T07:52:12.378Z,99.99
2019-03-24T07:53:12.276Z,99.98
2019-03-24T07:54:12.182Z,99.65
2019-03-24T07:55:12.125Z,99.99
2019-03-24T07:56:11.970Z,99.99
2019-03-24T07:57:11.868Z,99.46
2019-03-24T07:58:11.768Z,99.99
2019-03-24T07:59:11.665Z,99.99
2019-03-24T08:00:11.571Z,99.99
2019-03-24T08:01:11.465Z,99.84
2019-03-24T08:02:11.361Z,99.27
2019-03-24T08:03:11.257Z,99.93
2019-03-24T08:04:11.155Z,99.93
2019-03-24T08:05:11.054Z,99.99
2019-03-24T08:06:10.953Z,99.99
2019-03-24T08:07:10.851Z,99.99
2019-03-24T08:08:10.749Z,99.99
2019-03-24T08:09:10.645Z,99.99
2019-03-24T08:10:10.544Z,99.99
2019-03-24T08:11:10.443Z,99.99
2019-03-24T08:12:10.343Z,99.99
2019-03-24T08:13:10.242Z,99.89
2019-03-24T08:14:10.162Z,99.99
2019-03-24T08:15:10.094Z,99.51
2019-03-24T08:16:09.935Z,99.89
2019-03-24T08:17:09.832Z,99.79
2019-03-24T08:18:09.735Z,99.65
2019-03-24T08:19:09.629Z,99.22
2019-03-24T08:20:09.529Z,99.99
2019-03-24T08:21:09.429Z,99.60
2019-03-24T08:22:09.326Z,99.60
2019-03-24T08:23:09.222Z,99.99
2019-03-24T08:24:09.124Z,99.89
2019-03-24T08:25:09.019Z,99.99
2019-03-24T08:26:08.919Z,99.98
2019-03-24T08:27:08.817Z,99.99
2019-03-24T08:28:08.715Z,99.79
2019-03-24T08:29:08.614Z,99.69
2019-03-24T08:30:08.512Z,99.99
2019-03-24T08:31:08.410Z,99.99
2019-03-24T08:32:08.309Z,99.89
2019-03-24T08:33:08.208Z,99.60
2019-03-24T08:34:08.151Z,99.69
2019-03-24T08:35:08.081Z,99.46
2019-03-24T08:36:07.903Z,99.94
2019-03-24T08:37:07.801Z,99.03
2019-03-24T08:38:07.711Z,99.60
2019-03-24T08:39:07.601Z,99.98
2019-03-24T08:40:07.501Z,99.41
2019-03-24T08:41:07.396Z,99.32
2019-03-24T08:42:07.299Z,98.94
2019-03-24T08:43:07.196Z,98.65
2019-03-24T08:44:07.093Z,98.94
2019-03-24T08:45:06.991Z,98.74
2019-03-24T08:46:06.891Z,98.94
2019-03-24T08:47:06.789Z,98.94
2019-03-24T08:48:06.688Z,98.84
2019-03-24T08:49:06.585Z,98.65
2019-03-24T08:50:06.488Z,99.03
2019-03-24T08:51:06.388Z,98.27
2019-03-24T08:52:06.286Z,98.27
2019-03-24T08:53:06.188Z,98.46
2019-03-24T08:54:06.135Z,98.46
2019-03-24T08:55:06.046Z,97.60
2019-03-24T08:56:05.878Z,97.56
2019-03-24T08:57:05.780Z,97.27
2019-03-24T08:58:05.678Z,96.94
2019-03-24T08:59:05.574Z,97.13
2019-03-24T09:00:05.478Z,97.56
2019-03-24T09:01:05.371Z,95.27
2019-03-24T09:02:05.272Z,94.60
2019-03-24T09:03:05.174Z,93.84
2019-03-24T09:04:05.069Z,93.93
2019-03-24T09:05:04.972Z,93.65
2019-03-24T09:06:04.865Z,94.84
2019-03-24T09:07:04.767Z,94.37
2019-03-24T09:08:04.666Z,92.93
2019-03-24T09:09:04.564Z,91.31
2019-03-24T09:10:04.465Z,92.36
2019-03-24T09:11:04.365Z,90.88
2019-03-24T09:12:04.269Z,90.59
2019-03-24T09:13:04.167Z,90.03
2019-03-24T09:14:04.094Z,89.93
2019-03-24T09:15:04.029Z,88.69
2019-03-24T09:16:03.864Z,88.40
2019-03-24T09:17:03.765Z,88.31
2019-03-24T09:18:03.666Z,87.50
2019-03-24T09:19:03.566Z,87.16
2019-03-24T09:20:03.466Z,87.16
2019-03-24T09:21:03.367Z,86.30
2019-03-24T09:22:03.265Z,87.16
2019-03-24T09:23:03.167Z,85.83
2019-03-24T09:24:03.065Z,85.64
2019-03-24T09:25:02.965Z,86.02
2019-03-24T09:26:02.867Z,85.83
2019-03-24T09:27:02.769Z,85.06
2019-03-24T09:28:02.666Z,84.88
2019-03-24T09:29:02.567Z,83.73
2019-03-24T09:30:02.467Z,84.74
2019-03-24T09:31:02.370Z,86.45
2019-03-24T09:32:02.268Z,87.21
2019-03-24T09:33:02.170Z,86.55
2019-03-24T09:34:02.074Z,88.36
2019-03-24T09:35:02.013Z,90.08
2019-03-24T09:36:01.902Z,89.50
2019-03-24T09:37:01.770Z,88.74
2019-03-24T09:38:01.671Z,89.12
2019-03-24T09:39:01.567Z,89.69
2019-03-24T09:40:01.470Z,91.65
2019-03-24T09:41:01.367Z,93.27
2019-03-24T09:42:01.271Z,94.46
2019-03-24T09:43:01.169Z,91.50
2019-03-24T09:44:01.068Z,85.50
2019-03-24T09:45:00.970Z,85.27
2019-03-24T09:46:00.870Z,86.79
2019-03-24T09:47:00.767Z,88.79
2019-03-24T09:48:00.666Z,90.98
2019-03-24T09:49:03.417Z,93.17
2019-03-24T09:50:00.469Z,93.74
2019-03-24T09:51:00.366Z,92.03
2019-03-24T09:52:00.265Z,91.94
2019-03-24T09:53:00.162Z,92.36
2019-03-24T09:54:00.063Z,90.79
2019-03-24T09:55:00.021Z,89.75
2019-03-24T09:55:59.861Z,89.65
2019-03-24T09:56:59.760Z,91.46
2019-03-24T09:57:59.659Z,90.12
2019-03-24T09:58:59.555Z,90.22
2019-03-24T09:59:59.458Z,91.08
2019-03-24T10:00:59.354Z,90.31
2019-03-24T10:01:59.251Z,90.22
2019-03-24T10:02:59.155Z,92.03
2019-03-24T10:03:59.055Z,93.46
2019-03-24T10:04:58.950Z,92.55
2019-03-24T10:05:58.849Z,92.27
2019-03-24T10:06:58.748Z,92.55
2019-03-24T10:07:58.649Z,93.51
2019-03-24T10:08:58.549Z,91.22
2019-03-24T10:09:58.448Z,91.13
2019-03-24T10:10:58.345Z,90.26
2019-03-24T10:11:58.244Z,91.13
2019-03-24T10:12:58.141Z,91.31
2019-03-24T10:13:58.040Z,87.50
2019-03-24T10:14:58.013Z,86.98
2019-03-24T10:15:57.839Z,87.16
2019-03-24T10:16:57.737Z,88.40
2019-03-24T10:17:57.949Z,86.21
2019-03-24T10:18:57.536Z,81.54
2019-03-24T10:19:57.433Z,78.39
2019-03-24T10:20:57.331Z,76.96
2019-03-24T10:21:57.234Z,76.57
2019-03-24T10:22:57.140Z,77.15
2019-03-24T10:23:57.029Z,78.39
2019-03-24T10:24:56.927Z,80.20
2019-03-24T10:25:56.827Z,81.15
2019-03-24T10:26:56.727Z,80.11
2019-03-24T10:27:56.625Z,79.06
2019-03-24T10:28:56.524Z,79.35
2019-03-24T10:29:56.424Z,78.96
2019-03-24T10:30:56.323Z,77.20
2019-03-24T10:31:56.224Z,76.92
2019-03-24T10:32:56.124Z,77.59
2019-03-24T10:33:56.021Z,77.20
2019-03-24T10:34:55.987Z,77.01
2019-03-24T10:35:55.821Z,77.30
2019-03-24T10:36:55.718Z,77.49
2019-03-24T10:37:55.618Z,78.35
2019-03-24T10:38:55.521Z,76.57
2019-03-24T10:39:55.418Z,77.01
2019-03-24T10:40:55.315Z,76.92
2019-03-24T10:41:55.216Z,77.30
2019-03-24T10:42:55.114Z,78.54
2019-03-24T10:43:55.016Z,78.01
2019-03-24T10:44:54.915Z,77.49
2019-03-24T10:45:54.815Z,77.44
2019-03-24T10:46:54.714Z,78.77
2019-03-24T10:47:54.914Z,78.73
2019-03-24T10:48:54.514Z,79.40
2019-03-24T10:49:54.416Z,77.59
2019-03-24T10:50:54.311Z,77.40
2019-03-24T10:51:54.212Z,77.11
2019-03-24T10:52:54.112Z,78.44
2019-03-24T10:53:54.057Z,78.92
2019-03-24T10:54:53.964Z,79.30
2019-03-24T10:55:53.823Z,82.54
2019-03-24T10:56:53.709Z,83.12
2019-03-24T10:57:53.608Z,79.55
2019-03-24T10:58:53.510Z,79.55
2019-03-24T10:59:53.409Z,81.17
2019-03-24T11:00:53.309Z,83.45
2019-03-24T11:01:53.210Z,82.98
2019-03-24T11:02:53.107Z,82.92
2019-03-24T11:03:53.010Z,83.40
2019-03-24T11:04:52.905Z,82.26
2019-03-24T11:05:52.804Z,80.83
2019-03-24T11:06:52.707Z,80.92
2019-03-24T11:07:52.604Z,79.30
2019-03-24T11:08:52.506Z,79.49
2019-03-24T11:09:52.404Z,78.54
2019-03-24T11:10:52.299Z,77.97
2019-03-24T11:11:52.200Z,78.83
2019-03-24T11:12:52.102Z,81.78
2019-03-24T11:13:52.000Z,80.92
2019-03-24T11:14:51.950Z,78.54
2019-03-24T11:15:51.871Z,77.49
2019-03-24T11:16:51.696Z,77.78
2019-03-24T11:17:51.595Z,77.59
2019-03-24T11:18:51.493Z,78.44
2019-03-24T11:19:51.396Z,78.77
2019-03-24T11:20:51.290Z,78.96
2019-03-24T11:21:51.189Z,79.91
2019-03-24T11:22:51.089Z,78.67
2019-03-24T11:23:50.990Z,77.34
2019-03-24T11:24:50.886Z,75.24
2019-03-24T11:25:50.784Z,73.05
2019-03-24T11:26:50.686Z,72.57
2019-03-24T11:27:50.584Z,72.67
2019-03-24T11:28:50.482Z,72.76
2019-03-24T11:29:50.379Z,72.48
2019-03-24T11:30:50.279Z,71.91
2019-03-24T11:31:50.179Z,71.33
2019-03-24T11:32:50.077Z,70.86
2019-03-24T11:33:49.977Z,70.86
2019-03-24T11:34:49.925Z,70.92
2019-03-24T11:35:49.814Z,71.68
2019-03-24T11:36:49.674Z,72.06
2019-03-24T11:37:49.879Z,72.00
2019-03-24T11:38:49.472Z,71.91
2019-03-24T11:39:49.371Z,70.19
2019-03-24T11:40:49.269Z,69.90
2019-03-24T11:41:49.169Z,70.38
2019-03-24T11:42:49.068Z,71.04
2019-03-24T11:43:48.966Z,71.43
2019-03-24T11:44:48.867Z,71.81
2019-03-24T11:45:48.764Z,71.52
2019-03-24T11:46:48.667Z,70.86
2019-03-24T11:47:48.571Z,71.14
2019-03-24T11:48:48.462Z,70.61
2019-03-24T11:49:49.162Z,68.79
2019-03-24T11:50:48.263Z,68.41
2019-03-24T11:51:48.159Z,68.22
2019-03-24T11:52:48.058Z,68.22
2019-03-24T11:53:48.003Z,68.12
2019-03-24T11:54:47.910Z,67.36
2019-03-24T11:55:47.832Z,67.27
2019-03-24T11:56:47.657Z,67.74
2019-03-24T11:57:47.555Z,67.77
2019-03-24T11:58:47.477Z,67.68
2019-03-24T11:59:47.356Z,67.43
2019-03-24T12:00:47.255Z,66.76
2019-03-24T12:01:47.152Z,65.61
2019-03-24T12:02:47.052Z,64.09
2019-03-24T12:03:46.954Z,64.02
2019-03-24T12:04:46.853Z,64.69
2019-03-24T12:05:46.752Z,62.30
2019-03-24T12:06:46.655Z,61.54
2019-03-24T12:07:46.555Z,60.77
2019-03-24T12:08:46.456Z,60.39
2019-03-24T12:09:46.356Z,60.58
2019-03-24T12:10:46.256Z,60.30
2019-03-24T12:11:46.157Z,58.48
2019-03-24T12:12:46.056Z,57.43
2019-03-24T12:13:45.957Z,57.04
2019-03-24T12:14:45.871Z,56.67
2019-03-24T12:15:45.813Z,57.24
2019-03-24T12:16:45.661Z,57.33
2019-03-24T12:17:45.559Z,57.93
2019-03-24T12:18:45.462Z,59.94
2019-03-24T12:19:45.377Z,60.13
2019-03-24T12:20:45.266Z,59.75
2019-03-24T12:21:45.169Z,58.41
2019-03-24T12:22:45.069Z,57.55
2019-03-24T12:23:44.970Z,55.64
2019-03-24T12:24:44.873Z,54.39
2019-03-24T12:25:44.775Z,55.64
2019-03-24T12:26:44.674Z,55.10
2019-03-24T12:27:44.579Z,55.38
2019-03-24T12:28:44.478Z,55.76
2019-03-24T12:29:44.379Z,53.94
2019-03-24T12:30:44.281Z,53.18
2019-03-24T12:31:44.185Z,53.92
2019-03-24T12:32:44.086Z,53.16
2019-03-24T12:33:43.989Z,53.25
2019-03-24T12:34:43.889Z,53.53
2019-03-24T12:35:43.840Z,53.92
2019-03-24T12:36:43.779Z,53.56
2019-03-24T12:37:43.596Z,53.37
2019-03-24T12:38:43.500Z,53.56
2019-03-24T12:39:43.402Z,53.18
2019-03-24T12:40:43.304Z,52.80
2019-03-24T12:41:43.205Z,53.08
2019-03-24T12:42:43.109Z,53.85
2019-03-24T12:43:43.012Z,54.36
2019-03-24T12:44:42.912Z,54.36
2019-03-24T12:45:42.813Z,53.69
2019-03-24T12:46:42.731Z,52.44
2019-03-24T12:47:42.620Z,52.73
2019-03-24T12:48:42.521Z,53.49
2019-03-24T12:49:42.427Z,53.20
2019-03-24T12:50:42.327Z,51.58